createdAt,value
2023-01-31T00:01:30.628Z,5.27
2023-01-31T00:04:03.217Z,5.20
2023-01-31T00:06:33.282Z,4.20
2023-01-31T00:09:01.646Z,4.67
2023-01-31T00:11:30.771Z,4.00
2023-01-31T00:13:59.163Z,3.77
2023-01-31T00:16:26.632Z,4.33
2023-01-31T00:18:53.893Z,4.60
2023-01-31T00:21:23.929Z,4.53
2023-01-31T00:23:51.835Z,3.37
2023-01-31T00:26:20.240Z,3.80
2023-01-31T00:28:48.593Z,3.20
2023-01-31T00:31:17.107Z,4.30
2023-01-31T00:33:46.167Z,3.43
2023-01-31T00:36:16.357Z,3.97
2023-01-31T00:38:47.943Z,4.23
2023-01-31T00:41:15.580Z,5.27
2023-01-31T00:43:42.344Z,4.53
2023-01-31T00:46:10.874Z,4.13
2023-01-31T00:48:38.450Z,3.90
2023-01-31T00:51:06.136Z,4.67
2023-01-31T00:53:33.217Z,3.57
2023-01-31T00:56:09.529Z,4.97
2023-01-31T00:58:37.567Z,4.13
2023-01-31T01:01:09.946Z,3.70
2023-01-31T01:03:38.173Z,2.80
2023-01-31T01:06:06.801Z,3.77
2023-01-31T01:08:34.689Z,4.27
2023-01-31T01:11:14.457Z,3.50
2023-01-31T01:13:41.824Z,3.70
2023-01-31T01:16:11.885Z,4.00
2023-01-31T01:18:38.984Z,4.67
2023-01-31T01:21:08.194Z,4.50
2023-01-31T01:23:37.069Z,3.63
2023-01-31T01:26:05.369Z,5.47
2023-01-31T01:28:35.615Z,4.50
2023-01-31T01:31:07.439Z,4.17
2023-01-31T01:33:35.234Z,3.90
2023-01-31T01:36:07.906Z,4.40
2023-01-31T01:38:36.398Z,4.60
2023-01-31T01:41:05.305Z,3.70
2023-01-31T01:43:41.303Z,3.43
2023-01-31T01:46:11.186Z,4.57
2023-01-31T01:48:38.692Z,3.50
2023-01-31T01:51:06.861Z,4.07
2023-01-31T01:53:37.327Z,3.80
2023-01-31T01:56:11.399Z,3.70
2023-01-31T01:58:52.857Z,4.13
2023-01-31T02:01:22.774Z,3.47
2023-01-31T02:03:52.103Z,3.17
2023-01-31T02:06:19.436Z,2.73
2023-01-31T02:08:46.394Z,2.90
2023-01-31T02:11:29.806Z,3.07
2023-01-31T02:14:03.769Z,3.20
2023-01-31T02:16:34.895Z,3.37
2023-01-31T02:19:03.053Z,4.27
2023-01-31T02:22:06.960Z,4.73
2023-01-31T02:25:11.131Z,3.00
2023-01-31T02:28:21.633Z,4.07
2023-01-31T02:31:04.719Z,3.03
2023-01-31T02:33:44.594Z,3.20
2023-01-31T02:36:39.788Z,3.27
2023-01-31T02:39:27.233Z,3.23
2023-01-31T02:42:03.201Z,3.40
2023-01-31T02:45:01.279Z,3.23
2023-01-31T02:47:44.075Z,2.87
2023-01-31T02:50:38.286Z,3.33
2023-01-31T02:53:12.835Z,2.67
2023-01-31T02:56:08.255Z,2.90
2023-01-31T02:58:39.034Z,2.90
2023-01-31T03:01:07.520Z,3.40
2023-01-31T03:03:36.691Z,3.57
2023-01-31T03:06:23.024Z,2.70
2023-01-31T03:09:21.455Z,2.87
2023-01-31T03:12:02.729Z,3.97
2023-01-31T03:14:36.742Z,2.43
2023-01-31T03:17:34.066Z,3.33
2023-01-31T03:20:12.169Z,2.97
2023-01-31T03:22:45.582Z,2.80
2023-01-31T03:25:17.114Z,3.40
2023-01-31T03:27:52.771Z,2.43
2023-01-31T03:30:27.788Z,2.87
2023-01-31T03:33:00.851Z,2.63
2023-01-31T03:35:31.929Z,3.07
2023-01-31T03:38:06.222Z,2.87
2023-01-31T03:40:41.498Z,2.83
2023-01-31T03:43:32.407Z,2.57
2023-01-31T03:46:11.169Z,2.93
2023-01-31T03:48:43.146Z,3.03
2023-01-31T03:51:19.273Z,2.33
2023-01-31T03:53:54.792Z,2.47
2023-01-31T03:56:35.864Z,2.50
2023-01-31T03:59:17.767Z,5.53
2023-01-31T04:01:49.782Z,3.93
2023-01-31T04:04:26.802Z,4.03
2023-01-31T04:06:53.753Z,5.13
2023-01-31T04:09:23.176Z,5.03
2023-01-31T04:11:50.901Z,3.57
2023-01-31T04:14:18.992Z,4.73
2023-01-31T04:16:45.990Z,3.53
2023-01-31T04:19:13.307Z,3.43
2023-01-31T04:21:40.509Z,3.30
2023-01-31T04:24:09.532Z,3.63
2023-01-31T04:26:36.872Z,4.67
2023-01-31T04:29:04.925Z,5.37
2023-01-31T04:31:32.523Z,5.33
2023-01-31T04:33:59.887Z,6.00
2023-01-31T04:36:27.432Z,6.37
2023-01-31T04:38:54.407Z,3.87
2023-01-31T04:41:21.247Z,3.30
2023-01-31T04:43:48.313Z,4.70
2023-01-31T04:46:15.105Z,3.90
2023-01-31T04:48:42.298Z,3.00
2023-01-31T04:51:09.708Z,3.43
2023-01-31T04:53:37.407Z,2.73
2023-01-31T04:56:05.836Z,2.80
2023-01-31T04:58:32.899Z,3.13
2023-01-31T05:00:59.826Z,3.80
2023-01-31T05:03:27.062Z,3.50
2023-01-31T05:05:53.912Z,3.33
2023-01-31T05:08:21.023Z,3.13
2023-01-31T05:10:48.496Z,3.43
2023-01-31T05:13:15.517Z,3.63
2023-01-31T05:15:42.378Z,3.30
2023-01-31T05:18:09.414Z,2.90
2023-01-31T05:20:40.864Z,3.43
2023-01-31T05:23:08.469Z,3.50
2023-01-31T05:25:36.399Z,4.13
2023-01-31T05:28:05.127Z,3.37
2023-01-31T05:30:32.678Z,3.50
2023-01-31T05:32:59.977Z,5.20
2023-01-31T05:35:26.734Z,4.30
2023-01-31T05:37:54.627Z,4.20
2023-01-31T05:40:22.408Z,3.63
2023-01-31T05:43:02.245Z,3.43
2023-01-31T05:45:29.682Z,3.60
2023-01-31T05:47:57.189Z,3.00
2023-01-31T05:50:24.256Z,3.07
2023-01-31T05:52:56.374Z,3.07
2023-01-31T05:55:23.397Z,3.07
2023-01-31T05:57:52.481Z,2.70
2023-01-31T06:00:20.065Z,4.10
2023-01-31T06:02:48.158Z,3.17
2023-01-31T06:05:15.669Z,3.20
2023-01-31T06:07:42.971Z,3.53
2023-01-31T06:10:11.550Z,3.30
2023-01-31T06:12:38.550Z,3.63
2023-01-31T06:15:05.911Z,4.93
2023-01-31T06:17:33.035Z,3.00
2023-01-31T06:20:00.228Z,3.43
2023-01-31T06:22:27.383Z,4.13
2023-01-31T06:24:54.126Z,3.30
2023-01-31T06:27:21.207Z,2.47
2023-01-31T06:29:47.923Z,2.70
2023-01-31T06:32:14.966Z,2.30
2023-01-31T06:34:41.782Z,2.20
2023-01-31T06:37:10.668Z,2.80
2023-01-31T06:39:37.503Z,3.30
2023-01-31T06:42:05.211Z,2.30
2023-01-31T06:44:33.443Z,2.90
2023-01-31T06:47:01.420Z,2.57
2023-01-31T06:49:28.345Z,3.13
2023-01-31T06:51:55.626Z,1.97
2023-01-31T06:54:22.431Z,3.17
2023-01-31T06:56:49.440Z,2.30
2023-01-31T06:59:16.280Z,3.47
2023-01-31T07:01:43.353Z,3.30
2023-01-31T07:04:10.102Z,3.97
2023-01-31T07:06:37.115Z,4.07
2023-01-31T07:09:03.847Z,4.37
2023-01-31T07:11:31.538Z,5.37
2023-01-31T07:13:58.482Z,3.83
2023-01-31T07:16:26.132Z,4.83
2023-01-31T07:18:54.339Z,3.40
2023-01-31T07:21:23.225Z,3.00
2023-01-31T07:23:51.072Z,3.17
2023-01-31T07:26:18.250Z,3.63
2023-01-31T07:28:45.179Z,4.00
2023-01-31T07:31:14.027Z,4.63
2023-01-31T07:33:41.395Z,3.23
2023-01-31T07:36:12.644Z,3.23
2023-01-31T07:38:39.584Z,4.63
2023-01-31T07:41:08.551Z,3.30
2023-01-31T07:43:35.391Z,3.23
2023-01-31T07:46:05.962Z,3.50
2023-01-31T07:48:33.048Z,2.43
2023-01-31T07:51:02.713Z,3.50
2023-01-31T07:53:33.215Z,2.17
2023-01-31T07:56:15.424Z,2.93
2023-01-31T07:58:44.058Z,3.23
2023-01-31T08:01:34.234Z,2.90
2023-01-31T08:04:18.382Z,3.77
2023-01-31T08:06:48.268Z,3.10
2023-01-31T08:09:15.101Z,2.73
2023-01-31T08:11:42.730Z,2.53
2023-01-31T08:14:10.021Z,2.57
2023-01-31T08:16:37.659Z,2.77
2023-01-31T08:19:04.619Z,2.30
2023-01-31T08:21:31.721Z,2.80
2023-01-31T08:23:58.509Z,3.07
2023-01-31T08:26:25.728Z,2.63
2023-01-31T08:28:54.131Z,2.73
2023-01-31T08:31:24.352Z,2.53
2023-01-31T08:33:53.247Z,2.40
2023-01-31T08:36:23.411Z,3.40
2023-01-31T08:38:51.256Z,1.90
2023-01-31T08:41:19.898Z,2.80
2023-01-31T08:43:58.295Z,2.30
2023-01-31T08:46:29.563Z,2.97
2023-01-31T08:48:56.483Z,3.50
2023-01-31T08:51:24.112Z,2.83
2023-01-31T08:53:51.317Z,2.20
2023-01-31T08:56:21.342Z,3.57
2023-01-31T08:58:48.599Z,2.77
2023-01-31T09:01:17.706Z,2.70
2023-01-31T09:03:46.294Z,3.20
2023-01-31T09:06:21.600Z,4.37
2023-01-31T09:08:48.594Z,2.70
2023-01-31T09:11:19.058Z,3.30
2023-01-31T09:13:49.554Z,3.50
2023-01-31T09:16:17.095Z,2.57
2023-01-31T09:18:44.019Z,3.93
2023-01-31T09:21:16.780Z,2.20
2023-01-31T09:23:44.075Z,3.80
2023-01-31T09:26:12.794Z,2.30
2023-01-31T09:28:42.791Z,2.37
2023-01-31T09:31:16.009Z,2.47
2023-01-31T09:33:43.615Z,3.17
2023-01-31T09:36:13.876Z,2.57
2023-01-31T09:38:41.195Z,2.40
2023-01-31T09:41:41.797Z,2.50
2023-01-31T09:44:40.324Z,2.43
2023-01-31T09:47:16.866Z,2.10
2023-01-31T09:49:59.325Z,3.00
2023-01-31T09:52:28.517Z,2.83
2023-01-31T09:54:55.464Z,2.97
2023-01-31T09:57:36.660Z,2.30
2023-01-31T10:00:19.025Z,2.80
2023-01-31T10:03:40.155Z,2.90
2023-01-31T10:06:21.226Z,2.50
2023-01-31T10:09:07.093Z,4.50
2023-01-31T10:11:48.178Z,2.70
2023-01-31T10:14:30.504Z,2.93
2023-01-31T10:16:57.319Z,2.93
2023-01-31T10:19:31.474Z,2.80
2023-01-31T10:22:04.122Z,4.43
2023-01-31T10:24:41.257Z,4.27
2023-01-31T10:27:19.215Z,3.60
2023-01-31T10:29:53.276Z,3.60
2023-01-31T10:32:36.128Z,4.23
2023-01-31T10:35:14.812Z,3.63
2023-01-31T10:37:56.814Z,4.10
2023-01-31T10:40:31.653Z,5.03
2023-01-31T10:43:09.142Z,6.47
2023-01-31T10:45:38.554Z,6.43
2023-01-31T10:48:34.873Z,4.83
2023-01-31T10:51:43.728Z,3.93
2023-01-31T10:54:25.995Z,3.50
2023-01-31T10:56:53.356Z,4.50
2023-01-31T10:59:44.227Z,5.70
2023-01-31T11:02:23.693Z,5.10
2023-01-31T11:04:53.311Z,4.30
2023-01-31T11:07:21.239Z,4.37
2023-01-31T11:09:54.395Z,4.30
2023-01-31T11:12:22.593Z,3.97
2023-01-31T11:15:06.832Z,2.93
2023-01-31T11:17:36.901Z,2.47
2023-01-31T11:20:06.667Z,3.73
2023-01-31T11:22:37.738Z,3.13
2023-01-31T11:25:05.565Z,3.97
2023-01-31T11:27:42.207Z,4.00
2023-01-31T11:30:29.542Z,3.90
2023-01-31T11:32:57.564Z,3.70
2023-01-31T11:35:28.929Z,4.20
2023-01-31T11:37:58.171Z,4.20
2023-01-31T11:40:30.444Z,3.97
2023-01-31T11:43:00.563Z,3.20
2023-01-31T11:45:31.761Z,3.93
2023-01-31T11:48:08.297Z,3.80
2023-01-31T11:50:39.036Z,4.33
2023-01-31T11:53:28.632Z,3.90
2023-01-31T11:56:00.372Z,5.60
2023-01-31T11:58:40.660Z,6.53
2023-01-31T12:01:14.472Z,4.57
2023-01-31T12:04:01.683Z,3.90
2023-01-31T12:06:38.753Z,2.93
2023-01-31T12:09:19.875Z,3.50
2023-01-31T12:11:56.315Z,4.00
2023-01-31T12:14:25.250Z,3.13
2023-01-31T12:16:55.849Z,2.80
2023-01-31T12:19:57.486Z,3.40
2023-01-31T12:22:33.078Z,5.87
2023-01-31T12:25:28.207Z,7.10
2023-01-31T12:28:22.565Z,5.40
2023-01-31T12:31:24.691Z,8.93
2023-01-31T12:34:03.572Z,2.93
2023-01-31T12:37:08.034Z,4.00
2023-01-31T12:40:09.076Z,3.50
2023-01-31T12:42:51.895Z,3.53
2023-01-31T12:45:49.681Z,4.23
2023-01-31T12:48:42.568Z,4.30
2023-01-31T12:51:12.197Z,8.40
2023-01-31T12:53:57.382Z,4.43
2023-01-31T12:56:24.546Z,4.73
2023-01-31T12:59:15.821Z,3.97
2023-01-31T13:01:49.442Z,4.83
2023-01-31T13:04:33.756Z,5.40
2023-01-31T13:07:04.855Z,5.90
2023-01-31T13:09:36.545Z,5.00
2023-01-31T13:12:09.022Z,4.17
2023-01-31T13:14:49.310Z,3.70
2023-01-31T13:17:25.963Z,4.47
2023-01-31T13:19:57.528Z,4.83
2023-01-31T13:22:29.662Z,3.93
2023-01-31T13:25:16.864Z,4.77
2023-01-31T13:27:49.217Z,4.27
2023-01-31T13:30:24.481Z,3.70
2023-01-31T13:32:55.141Z,3.77
2023-01-31T13:35:27.462Z,3.93
2023-01-31T13:38:02.720Z,3.37
2023-01-31T13:40:33.576Z,3.93
2023-01-31T13:43:13.017Z,3.97
2023-01-31T13:45:48.382Z,3.70
2023-01-31T13:48:29.721Z,3.53
2023-01-31T13:51:07.072Z,3.77
2023-01-31T13:53:49.279Z,2.83
2023-01-31T13:56:23.827Z,3.27
2023-01-31T13:58:52.145Z,5.37
2023-01-31T14:01:22.815Z,3.13
2023-01-31T14:04:12.200Z,6.30
2023-01-31T14:07:07.353Z,4.37
2023-01-31T14:09:43.408Z,5.20
2023-01-31T14:12:10.464Z,4.53
2023-01-31T14:14:45.110Z,3.60
2023-01-31T14:17:34.024Z,6.13
2023-01-31T14:20:02.417Z,4.00
2023-01-31T14:22:35.625Z,4.10
2023-01-31T14:25:08.639Z,3.90
2023-01-31T14:27:41.008Z,3.67
2023-01-31T14:30:30.326Z,11.50
2023-01-31T14:33:26.481Z,22.73
2023-01-31T14:36:30.594Z,5.03
2023-01-31T14:39:44.112Z,7.27
2023-01-31T14:42:22.753Z,7.37
2023-01-31T14:45:20.311Z,6.77
2023-01-31T14:47:58.162Z,3.60
2023-01-31T14:51:02.407Z,4.37
2023-01-31T14:53:59.180Z,5.73
2023-01-31T14:56:44.453Z,5.63
2023-01-31T14:59:41.732Z,4.13
2023-01-31T15:02:33.844Z,4.27
2023-01-31T15:05:09.921Z,5.77
2023-01-31T15:08:02.565Z,7.77
2023-01-31T15:10:54.083Z,13.20
2023-01-31T15:13:36.332Z,5.03
2023-01-31T15:16:06.387Z,4.13
2023-01-31T15:18:34.703Z,4.10
2023-01-31T15:21:06.781Z,3.40
2023-01-31T15:23:36.035Z,4.10
2023-01-31T15:26:04.486Z,3.80
2023-01-31T15:28:38.144Z,3.33
2023-01-31T15:31:17.702Z,4.13
2023-01-31T15:33:52.015Z,3.47
2023-01-31T15:36:33.228Z,3.57
2023-01-31T15:39:16.720Z,4.80
2023-01-31T15:41:44.416Z,4.40
2023-01-31T15:44:28.185Z,4.47
2023-01-31T15:46:58.010Z,4.00
2023-01-31T15:49:39.255Z,6.10
2023-01-31T15:52:22.460Z,4.77
2023-01-31T15:54:58.316Z,4.40
2023-01-31T15:57:31.212Z,4.63
2023-01-31T15:59:58.757Z,6.17
2023-01-31T16:02:28.681Z,6.10
2023-01-31T16:04:56.972Z,5.40
2023-01-31T16:07:28.537Z,4.80
2023-01-31T16:10:01.983Z,5.60
2023-01-31T16:12:31.633Z,3.80
2023-01-31T16:15:05.765Z,4.63
2023-01-31T16:17:33.197Z,9.33
2023-01-31T16:20:00.423Z,5.37
2023-01-31T16:22:30.062Z,6.07
2023-01-31T16:25:02.620Z,6.43
2023-01-31T16:27:35.421Z,5.97
2023-01-31T16:30:03.267Z,5.70
2023-01-31T16:32:37.300Z,5.47
2023-01-31T16:35:29.698Z,6.10
2023-01-31T16:38:07.795Z,5.80
2023-01-31T16:40:45.122Z,5.87
2023-01-31T16:43:20.851Z,5.53
2023-01-31T16:46:18.385Z,6.23
2023-01-31T16:49:01.922Z,5.97
2023-01-31T16:51:28.994Z,5.63
2023-01-31T16:54:18.753Z,6.00
2023-01-31T16:57:06.753Z,6.93
2023-01-31T16:59:33.540Z,6.57
2023-01-31T17:02:05.470Z,6.33
2023-01-31T17:04:32.579Z,6.80
2023-01-31T17:07:06.429Z,7.60
2023-01-31T17:09:35.394Z,7.27
2023-01-31T17:12:02.525Z,6.30
2023-01-31T17:14:29.959Z,6.40
2023-01-31T17:16:57.106Z,6.67
2023-01-31T17:19:24.402Z,7.07
2023-01-31T17:21:51.751Z,6.30
2023-01-31T17:24:20.325Z,6.37
2023-01-31T17:26:47.622Z,6.77
2023-01-31T17:29:14.530Z,8.17
2023-01-31T17:31:42.258Z,6.47
2023-01-31T17:34:16.535Z,6.70
2023-01-31T17:36:44.566Z,7.13
2023-01-31T17:39:11.320Z,7.63
2023-01-31T17:41:41.190Z,8.00
2023-01-31T17:44:12.730Z,9.00
2023-01-31T17:46:39.889Z,8.37
2023-01-31T17:49:06.714Z,8.37
2023-01-31T17:51:33.891Z,8.43
2023-01-31T17:54:00.654Z,8.23
2023-01-31T17:56:27.841Z,8.73
2023-01-31T17:58:54.627Z,8.30
2023-01-31T18:01:21.808Z,8.90
2023-01-31T18:03:49.201Z,8.93
2023-01-31T18:06:16.583Z,9.73
2023-01-31T18:08:43.405Z,10.23
2023-01-31T18:11:14.085Z,9.40
2023-01-31T18:13:41.372Z,10.30
2023-01-31T18:16:18.223Z,9.80
2023-01-31T18:18:45.070Z,10.57
2023-01-31T18:21:15.360Z,10.70
2023-01-31T18:23:42.845Z,11.77
2023-01-31T18:26:11.011Z,11.77
2023-01-31T18:28:37.988Z,11.50
2023-01-31T18:31:10.457Z,10.80
2023-01-31T18:33:37.802Z,10.70
2023-01-31T18:36:06.032Z,9.77
2023-01-31T18:38:32.982Z,9.43
2023-01-31T18:41:02.918Z,10.33
2023-01-31T18:43:29.782Z,9.20
2023-01-31T18:45:56.877Z,11.03
2023-01-31T18:48:23.867Z,11.60
2023-01-31T18:50:51.089Z,11.70
2023-01-31T18:53:17.815Z,13.50
2023-01-31T18:55:44.836Z,11.17
2023-01-31T18:58:11.585Z,10.43
2023-01-31T19:00:38.790Z,9.30
2023-01-31T19:03:05.716Z,11.37
2023-01-31T19:05:32.730Z,10.83
2023-01-31T19:07:59.439Z,9.80
2023-01-31T19:10:26.531Z,10.73
2023-01-31T19:12:53.462Z,10.27
2023-01-31T19:15:20.717Z,9.67
2023-01-31T19:17:47.695Z,9.43
2023-01-31T19:20:14.791Z,11.40
2023-01-31T19:22:41.579Z,10.30
2023-01-31T19:25:10.507Z,11.40
2023-01-31T19:27:39.627Z,9.93
2023-01-31T19:30:07.253Z,8.27
2023-01-31T19:32:34.008Z,9.43
2023-01-31T19:35:02.799Z,9.07
2023-01-31T19:37:29.542Z,9.40
2023-01-31T19:39:56.687Z,8.97
2023-01-31T19:42:23.746Z,7.60
2023-01-31T19:44:50.878Z,7.67
2023-01-31T19:47:18.393Z,7.37
2023-01-31T19:49:45.500Z,8.00
2023-01-31T19:52:12.324Z,7.97
2023-01-31T19:54:41.305Z,10.60
2023-01-31T19:57:07.994Z,10.23
2023-01-31T19:59:36.017Z,8.47
2023-01-31T20:02:02.873Z,7.77
2023-01-31T20:04:32.379Z,7.30
2023-01-31T20:06:59.254Z,7.70
2023-01-31T20:09:26.289Z,7.67
2023-01-31T20:11:53.969Z,7.23
2023-01-31T20:14:21.088Z,7.73
2023-01-31T20:16:48.001Z,8.17
2023-01-31T20:19:15.150Z,9.03
2023-01-31T20:21:41.897Z,8.73
2023-01-31T20:24:09.167Z,9.33
2023-01-31T20:26:35.953Z,8.53
2023-01-31T20:29:03.124Z,8.37
2023-01-31T20:31:30.120Z,7.67
2023-01-31T20:33:57.179Z,8.87
2023-01-31T20:36:24.230Z,9.53
2023-01-31T20:38:51.747Z,8.97
2023-01-31T20:41:18.609Z,9.07
2023-01-31T20:43:45.811Z,9.13
2023-01-31T20:46:14.890Z,9.50
2023-01-31T20:48:43.092Z,9.57
2023-01-31T20:51:10.175Z,9.63
2023-01-31T20:53:38.090Z,9.30
2023-01-31T20:56:09.538Z,9.80
2023-01-31T20:58:38.931Z,8.57
2023-01-31T21:01:07.047Z,9.03
2023-01-31T21:03:35.567Z,10.00
2023-01-31T21:06:03.904Z,8.57
2023-01-31T21:08:35.644Z,8.93
2023-01-31T21:11:07.194Z,9.20
2023-01-31T21:13:35.045Z,8.37
2023-01-31T21:16:04.144Z,7.77
2023-01-31T21:18:37.038Z,7.73
2023-01-31T21:21:09.464Z,7.63
2023-01-31T21:23:37.884Z,6.77
2023-01-31T21:26:06.944Z,7.30
2023-01-31T21:28:34.349Z,6.03
2023-01-31T21:31:03.522Z,6.90
2023-01-31T21:33:31.397Z,7.93
2023-01-31T21:36:00.683Z,8.90
2023-01-31T21:38:27.909Z,3.10
2023-01-31T21:41:14.700Z,2.40
2023-01-31T21:43:41.865Z,1.77
2023-01-31T21:46:10.145Z,2.30
2023-01-31T21:48:37.657Z,2.77
2023-01-31T21:51:06.850Z,2.63
2023-01-31T21:53:34.725Z,3.03
2023-01-31T21:56:06.887Z,2.57
2023-01-31T21:58:35.474Z,2.47
2023-01-31T22:01:08.174Z,2.30
2023-01-31T22:03:37.344Z,2.67
2023-01-31T22:06:09.202Z,3.13
2023-01-31T22:08:36.514Z,2.87
2023-01-31T22:11:05.595Z,2.90
2023-01-31T22:13:33.347Z,2.50
2023-01-31T22:16:05.696Z,2.23
2023-01-31T22:18:33.263Z,1.90
2023-01-31T22:21:11.796Z,3.33
2023-01-31T22:23:40.435Z,3.03
2023-01-31T22:26:13.262Z,4.70
2023-01-31T22:28:40.672Z,5.37
2023-01-31T22:31:08.496Z,5.30
2023-01-31T22:33:39.161Z,6.13
2023-01-31T22:36:07.660Z,6.87
2023-01-31T22:38:34.813Z,4.87
2023-01-31T22:41:04.472Z,3.07
2023-01-31T22:43:31.746Z,2.90
2023-01-31T22:45:59.485Z,2.40
2023-01-31T22:48:27.259Z,1.70
2023-01-31T22:51:01.429Z,2.03
2023-01-31T22:53:31.425Z,2.07
2023-01-31T22:56:06.080Z,2.33
2023-01-31T22:58:33.936Z,2.10
2023-01-31T23:01:00.745Z,1.90
2023-01-31T23:03:28.401Z,2.00
2023-01-31T23:05:55.236Z,1.83
2023-01-31T23:08:22.330Z,2.63
2023-01-31T23:10:49.129Z,3.10
2023-01-31T23:13:16.195Z,1.97
2023-01-31T23:15:42.951Z,1.50
2023-01-31T23:18:10.011Z,1.90
2023-01-31T23:20:36.868Z,1.70
2023-01-31T23:23:03.822Z,1.80
2023-01-31T23:25:30.734Z,1.60
2023-01-31T23:27:58.646Z,2.27
2023-01-31T23:30:25.549Z,2.33
2023-01-31T23:32:52.662Z,3.07
2023-01-31T23:35:20.246Z,2.30
2023-01-31T23:37:47.566Z,2.63
2023-01-31T23:40:14.456Z,2.90
2023-01-31T23:42:41.943Z,3.27
2023-01-31T23:45:09.126Z,3.17
2023-01-31T23:47:36.314Z,3.10
2023-01-31T23:50:03.108Z,2.97
2023-01-31T23:52:30.302Z,3.13
2023-01-31T23:54:57.026Z,2.80
2023-01-31T23:57:24.015Z,3.70
2023-01-31T23:59:50.841Z,3.97
